Time;durP1;ratioP1;P1;durP2;ratioP2;P2;SDS_P1;SDS_P2;PMS_P1;PMS_P2;Temp;Humidity;BMP_temperature;BMP_pressure;BME280_temperature;BME280_humidity;BME280_pressure;Samples;Min_cycle;Max_cycle;Signal;HPM_P1;HPM_P2
2022/04/30 00:02:25;;;;;;;8.03;5.00;;;;;;;-145.69;100.00;72339.72;5072629;28;20214;-78
2022/04/30 00:04:52;;;;;;;8.77;5.50;;;;;;;-145.69;100.00;72325.81;5073668;28;20256;-77
2022/04/30 00:07:20;;;;;;;9.37;5.43;;;;;;;-145.69;100.00;72309.88;5073064;28;20229;-77
2022/04/30 00:09:48;;;;;;;9.90;5.43;;;;;;;-145.69;100.00;72307.88;5072878;28;20229;-77
2022/04/30 00:12:16;;;;;;;7.83;5.03;;;;;;;-145.69;100.00;72315.84;5059411;28;20210;-77
2022/04/30 00:14:43;;;;;;;10.20;5.77;;;;;;;-145.69;100.00;72307.88;5053184;28;20290;-77
2022/04/30 00:17:10;;;;;;;13.63;5.83;;;;;;;-145.69;100.00;72289.97;5053031;28;20273;-76
2022/04/30 00:19:37;;;;;;;10.57;5.43;;;;;;;-145.69;100.00;72280.03;5052173;28;20227;-77
2022/04/30 00:22:04;;;;;;;10.63;6.20;;;;;;;-145.69;100.00;72282.00;5053248;28;20200;-78
2022/04/30 00:24:31;;;;;;;9.23;5.53;;;;;;;-145.69;100.00;72284.00;5053218;28;20199;-77
2022/04/30 00:26:59;;;;;;;18.60;6.40;;;;;;;-145.69;100.00;72282.00;5053113;28;20231;-77
2022/04/30 00:29:26;;;;;;;12.52;6.88;;;;;;;-145.69;100.00;72278.03;5052658;28;20834;-77
2022/04/30 00:31:53;;;;;;;9.00;5.90;;;;;;;-145.69;100.00;72276.03;5053654;28;20199;-77
2022/04/30 00:34:19;;;;;;;7.60;5.23;;;;;;;-145.69;100.00;72293.94;5057672;28;20206;-77
2022/04/30 00:36:47;;;;;;;9.13;4.83;;;;;;;-145.69;100.00;72307.88;5057459;28;20211;-77
2022/04/30 00:39:14;;;;;;;13.10;5.20;;;;;;;-145.69;100.00;72317.84;5059865;28;20236;-78
2022/04/30 00:41:41;;;;;;;8.00;4.57;;;;;;;-145.69;100.00;72321.81;5077192;28;20203;-78
2022/04/30 00:44:08;;;;;;;8.07;4.80;;;;;;;-145.69;100.00;72321.81;5076867;28;20203;-78
2022/04/30 00:46:34;;;;;;;10.10;4.90;;;;;;;-145.69;100.00;72313.84;5077568;28;20256;-78
2022/04/30 00:49:02;;;;;;;12.27;6.00;;;;;;;-145.69;100.00;72303.91;5077353;28;20199;-78
2022/04/30 00:51:29;;;;;;;10.50;5.37;;;;;;;-145.69;100.00;72299.91;5077368;28;20206;-77
2022/04/30 00:53:57;;;;;;;9.23;6.00;;;;;;;-145.69;100.00;72299.91;5077252;28;20203;-77
2022/04/30 00:56:27;;;;;;;9.53;5.80;;;;;;;-145.69;100.00;72293.94;5077147;28;20203;-77
2022/04/30 00:58:56;;;;;;;11.10;5.67;;;;;;;-145.69;100.00;72297.94;5077379;28;20226;-77
2022/04/30 01:01:23;;;;;;;9.20;5.20;;;;;;;-145.69;100.00;72299.91;5075881;28;20525;-77
2022/04/30 01:03:50;;;;;;;7.10;4.60;;;;;;;-145.69;100.00;72297.94;5076723;28;20198;-77
2022/04/30 01:06:18;;;;;;;9.90;5.30;;;;;;;-145.69;100.00;72297.94;5076683;28;20202;-77
2022/04/30 01:08:45;;;;;;;12.63;5.67;;;;;;;-145.69;100.00;72293.94;5076116;28;20223;-77
2022/04/30 01:11:12;;;;;;;9.33;4.93;;;;;;;-145.69;100.00;72282.00;5076604;28;20202;-77
2022/04/30 01:13:39;;;;;;;11.10;5.03;;;;;;;-145.69;100.00;72282.00;5075970;28;20187;-77
2022/04/30 01:16:08;;;;;;;16.77;6.33;;;;;;;-145.69;100.00;72282.00;5075704;28;20249;-78
2022/04/30 01:18:35;;;;;;;13.50;6.50;;;;;;;-145.69;100.00;72274.06;5076258;28;20590;-77
2022/04/30 01:21:08;;;;;;;10.23;6.20;;;;;;;-145.69;100.00;72268.06;5075171;28;20209;-78
2022/04/30 01:23:35;;;;;;;11.17;5.33;;;;;;;-145.69;100.00;72272.06;5076409;28;20198;-77
2022/04/30 01:26:03;;;;;;;9.03;4.53;;;;;;;-145.69;100.00;72286.00;5076576;28;20199;-77
2022/04/30 01:28:30;;;;;;;6.70;4.93;;;;;;;-145.69;100.00;72286.00;5076084;28;20554;-77
2022/04/30 01:30:56;;;;;;;9.93;4.80;;;;;;;-145.69;100.00;72293.94;5076348;28;20199;-77
2022/04/30 01:38:58;;;;;;;10.30;5.07;;;;;;;-145.69;100.00;72289.97;5075974;28;20562;-77
2022/04/30 01:41:25;;;;;;;10.43;5.27;;;;;;;-145.69;100.00;72301.91;5076200;28;20203;-78
2022/04/30 01:43:51;;;;;;;7.40;4.73;;;;;;;-145.69;100.00;72305.91;5075045;28;20198;-77
2022/04/30 01:46:18;;;;;;;12.13;6.17;;;;;;;-145.69;100.00;72289.97;5075717;28;20215;-77
2022/04/30 01:48:45;;;;;;;10.90;6.27;;;;;;;-145.69;100.00;72270.06;5075438;28;20230;-78
2022/04/30 01:51:13;;;;;;;11.83;5.87;;;;;;;-145.69;100.00;72264.09;5075451;28;20662;-77
2022/04/30 01:53:40;;;;;;;11.43;6.40;;;;;;;-145.69;100.00;72234.25;5074817;28;20905;-77
2022/04/30 01:56:07;;;;;;;9.13;5.83;;;;;;;-145.69;100.00;72218.31;5075433;28;20657;-77
2022/04/30 01:58:34;;;;;;;10.00;6.03;;;;;;;-145.69;100.00;72204.38;5075556;28;20206;-77
2022/04/30 02:01:02;;;;;;;9.23;5.57;;;;;;;-145.69;100.00;72200.41;5075246;28;20294;-76
2022/04/30 02:03:29;;;;;;;9.83;5.47;;;;;;;-145.69;98.57;72158.63;5075191;28;20668;-77
2022/04/30 02:05:56;;;;;;;10.83;5.90;;;;;;;-145.69;99.69;72158.63;5075221;28;20199;-77
2022/04/30 02:08:23;;;;;;;9.53;5.90;;;;;;;-145.69;100.00;72180.50;5074992;28;20222;-77
2022/04/30 02:10:50;;;;;;;13.63;6.00;;;;;;;-145.69;100.00;72186.47;5071958;28;20199;-77
2022/04/30 02:13:23;;;;;;;15.37;6.20;;;;;;;-145.69;100.00;72174.53;5055050;28;20196;-77
2022/04/30 02:15:51;;;;;;;14.20;7.20;;;;;;;-145.69;100.00;72166.56;5054715;28;20595;-77
2022/04/30 02:18:21;;;;;;;11.17;6.87;;;;;;;-145.69;100.00;72162.59;5055011;28;20602;-77
2022/04/30 02:20:50;;;;;;;10.43;6.67;;;;;;;-145.69;100.00;72162.59;5054926;28;20654;-77
2022/04/30 02:23:17;;;;;;;15.60;7.60;;;;;;;-145.69;100.00;72172.53;5055006;28;20206;-77
2022/04/30 02:25:45;;;;;;;15.67;6.97;;;;;;;-145.69;100.00;72168.56;5054925;28;20199;-78
2022/04/30 02:28:11;;;;;;;11.43;7.67;;;;;;;-145.69;100.00;72162.59;5054676;28;20227;-77
2022/04/30 02:30:39;;;;;;;11.37;7.33;;;;;;;-145.69;100.00;72162.59;5055045;28;20203;-77
2022/04/30 02:33:08;;;;;;;10.07;7.23;;;;;;;-145.69;100.00;72174.53;5054844;28;20262;-77
2022/04/30 02:35:36;;;;;;;12.83;7.97;;;;;;;-145.69;100.00;72178.53;5054030;28;20637;-78
2022/04/30 02:38:08;;;;;;;13.30;7.60;;;;;;;-145.69;100.00;72186.47;5066135;28;20203;-78
2022/04/30 02:40:35;;;;;;;15.67;8.03;;;;;;;-145.69;100.00;72194.44;5074638;28;20294;-77
2022/04/30 02:43:06;;;;;;;14.53;7.63;;;;;;;-145.69;100.00;72194.44;5074437;28;20203;-78
2022/04/30 02:45:33;;;;;;;12.87;8.20;;;;;;;-145.69;100.00;72198.41;5074765;28;20234;-78
2022/04/30 02:48:02;;;;;;;14.40;7.60;;;;;;;-145.69;100.00;72198.41;5074432;28;20232;-78
2022/04/30 02:50:30;;;;;;;13.83;8.00;;;;;;;-145.69;100.00;72210.38;5074429;28;20207;-78
2022/04/30 02:52:56;;;;;;;17.17;9.07;;;;;;;-145.69;100.00;72216.34;5074282;28;20203;-78
2022/04/30 02:55:23;;;;;;;13.40;7.53;;;;;;;-145.69;100.00;72224.28;5074042;28;20199;-78
2022/04/30 03:00:38;;;;;;;13.33;7.57;;;;;;;-145.69;100.00;72232.25;5074226;28;20264;-77
2022/04/30 03:03:06;;;;;;;13.53;8.17;;;;;;;-145.69;100.00;72248.19;5074273;28;20199;-78
2022/04/30 03:05:32;;;;;;;16.43;7.97;;;;;;;-145.69;100.00;72242.22;5074283;28;20203;-77
2022/04/30 03:08:01;;;;;;;18.83;8.80;;;;;;;-145.69;100.00;72248.19;5073621;28;20326;-77
2022/04/30 03:10:27;;;;;;;15.20;8.80;;;;;;;-145.69;100.00;72236.22;5074128;28;20195;-77
2022/04/30 03:12:54;;;;;;;15.33;9.67;;;;;;;-145.69;100.00;72240.22;5073849;28;20207;-77
2022/04/30 03:15:22;;;;;;;18.53;10.53;;;;;;;-145.69;100.00;72242.22;5073797;28;20487;-77
2022/04/30 03:23:19;;;;;;;19.03;9.60;;;;;;;-145.69;100.00;72230.25;5073749;28;20677;-78
2022/04/30 03:25:46;;;;;;;22.57;11.87;;;;;;;-145.69;100.00;72224.28;5073729;28;20206;-78
2022/04/30 03:28:12;;;;;;;17.53;10.40;;;;;;;-145.69;100.00;72226.28;5073521;28;20697;-78
2022/04/30 03:30:38;;;;;;;16.47;9.40;;;;;;;-145.69;100.00;72238.22;5070841;28;20222;-78
2022/04/30 03:33:08;;;;;;;17.67;9.83;;;;;;;-145.69;100.00;72232.25;5073819;28;20225;-78
2022/04/30 03:35:38;;;;;;;14.00;9.13;;;;;;;-145.69;100.00;72222.31;5073279;28;20203;-76
2022/04/30 03:38:05;;;;;;;16.70;9.63;;;;;;;-145.69;100.00;72226.28;5072526;28;20290;-77
2022/04/30 03:40:32;;;;;;;21.30;10.93;;;;;;;-145.69;100.00;72238.22;5072997;28;20206;-77
2022/04/30 03:42:58;;;;;;;18.20;10.40;;;;;;;-145.69;100.00;72248.19;5073116;28;20194;-77
2022/04/30 03:45:25;;;;;;;19.13;12.07;;;;;;;-145.69;100.00;72248.19;5072811;28;20212;-78
2022/04/30 03:47:51;;;;;;;27.53;14.10;;;;;;;-145.69;100.00;72240.22;5073482;28;20439;-77
2022/04/30 03:50:18;;;;;;;22.77;13.13;;;;;;;-145.69;100.00;72238.22;5073097;28;20198;-76
2022/04/30 03:52:45;;;;;;;30.60;15.10;;;;;;;-145.69;100.00;72234.25;5073348;28;20199;-77
2022/04/30 03:55:14;;;;;;;28.33;14.53;;;;;;;-145.69;100.00;72232.25;5073404;28;20732;-78
2022/04/30 03:57:40;;;;;;;31.83;15.60;;;;;;;-145.69;100.00;72234.25;5073173;28;20268;-77
2022/04/30 04:00:08;;;;;;;26.67;15.10;;;;;;;-145.69;100.00;72230.25;5073429;28;20199;-77
2022/04/30 04:02:39;;;;;;;35.53;16.77;;;;;;;-145.69;100.00;72224.28;5073100;28;20233;-77
2022/04/30 04:05:08;;;;;;;28.03;15.43;;;;;;;-145.69;100.00;72226.28;5073277;28;20203;-77
2022/04/30 04:07:34;;;;;;;31.07;17.07;;;;;;;-145.69;100.00;72236.22;5069096;28;20203;-78
2022/04/30 04:10:03;;;;;;;38.63;17.40;;;;;;;-145.69;100.00;72230.25;5073092;28;20194;-78
2022/04/30 04:12:29;;;;;;;27.47;15.10;;;;;;;-145.69;100.00;72230.25;5072865;28;20202;-78
2022/04/30 04:17:40;;;;;;;32.03;16.07;;;;;;;-145.69;100.00;72224.28;5072897;28;20557;-78
2022/04/30 04:20:09;;;;;;;27.93;14.33;;;;;;;-145.69;100.00;72226.28;5072809;28;20241;-78
2022/04/30 04:22:35;;;;;;;28.30;14.93;;;;;;;-145.69;100.00;72222.31;5072653;28;20198;-77
2022/04/30 04:27:48;;;;;;;23.67;13.67;;;;;;;-145.69;100.00;72218.31;5072887;28;20198;-77
2022/04/30 04:30:14;;;;;;;27.47;14.43;;;;;;;-145.69;100.00;72218.31;5073021;28;20198;-78
2022/04/30 04:32:41;;;;;;;23.73;13.17;;;;;;;-145.69;100.00;72206.38;5072596;28;20198;-77
2022/04/30 04:35:08;;;;;;;23.67;12.87;;;;;;;-145.69;100.00;72214.34;5072797;28;20203;-77
2022/04/30 04:37:34;;;;;;;20.90;12.87;;;;;;;-145.69;100.00;72214.34;5072671;28;20207;-77
2022/04/30 04:40:01;;;;;;;27.40;12.83;;;;;;;-145.69;100.00;72226.28;5072850;28;20297;-77
2022/04/30 04:42:28;;;;;;;26.23;14.33;;;;;;;-145.69;100.00;72224.28;5072624;28;20195;-78
2022/04/30 04:44:55;;;;;;;28.17;15.03;;;;;;;-145.69;100.00;72232.25;5072827;28;20252;-77
2022/04/30 04:47:21;;;;;;;25.47;14.87;;;;;;;-145.69;100.00;72234.25;5072849;28;20202;-77
2022/04/30 04:49:48;;;;;;;34.50;15.27;;;;;;;-145.69;100.00;72242.22;5072522;28;20284;-77
2022/04/30 04:52:15;;;;;;;34.63;16.60;;;;;;;-145.69;100.00;72246.19;5072840;28;20230;-77
2022/04/30 04:54:41;;;;;;;32.37;17.20;;;;;;;-145.69;100.00;72254.16;5072588;28;20665;-77
2022/04/30 04:57:07;;;;;;;36.80;17.07;;;;;;;-145.69;100.00;72252.16;5072865;28;20248;-77
2022/04/30 04:59:35;;;;;;;34.30;16.70;;;;;;;-145.69;100.00;72262.09;5072469;28;20203;-77
2022/04/30 05:02:03;;;;;;;37.17;18.23;;;;;;;-145.69;100.00;72272.06;5070846;28;20654;-77
2022/04/30 05:04:31;;;;;;;34.10;18.17;;;;;;;-145.69;100.00;72270.06;5072371;28;20234;-77
2022/04/30 05:06:58;;;;;;;40.37;20.07;;;;;;;-145.69;100.00;72286.00;5072507;28;20203;-77
2022/04/30 05:09:25;;;;;;;34.93;18.50;;;;;;;-145.69;100.00;72287.97;5072381;28;20226;-76
2022/04/30 05:11:52;;;;;;;38.37;19.27;;;;;;;-145.69;100.00;72289.97;5072536;28;20202;-77
2022/04/30 05:14:18;;;;;;;42.03;19.50;;;;;;;-145.69;100.00;72297.94;5072409;28;20712;-76
2022/04/30 05:16:47;;;;;;;35.37;18.57;;;;;;;-145.69;100.00;72301.91;5072146;28;20206;-77
2022/04/30 05:19:13;;;;;;;34.37;18.20;;;;;;;-145.69;100.00;72301.91;5074365;28;20230;-77
2022/04/30 05:21:40;;;;;;;39.33;18.63;;;;;;;-145.69;100.00;72303.91;5076230;28;20260;-76
2022/04/30 05:24:07;;;;;;;36.83;19.30;;;;;;;-145.69;100.00;72307.88;5075916;28;20207;-76
2022/04/30 05:26:33;;;;;;;35.20;18.37;;;;;;;-145.69;100.00;72309.88;5076053;28;20210;-76
2022/04/30 05:29:00;;;;;;;36.83;19.00;;;;;;;-145.69;100.00;72307.88;5075905;28;20559;-76
2022/04/30 05:31:26;;;;;;;40.10;20.63;;;;;;;-145.69;100.00;72305.91;5075767;28;20589;-76
2022/04/30 05:33:54;;;;;;;43.97;21.13;;;;;;;-145.69;100.00;72309.88;5055795;28;20202;-75
2022/04/30 05:36:21;;;;;;;41.90;21.00;;;;;;;-145.69;100.00;72313.84;5055935;28;20196;-76
2022/04/30 05:38:47;;;;;;;47.50;23.00;;;;;;;-145.69;100.00;72317.84;5055770;28;20281;-76
2022/04/30 05:41:14;;;;;;;49.47;23.97;;;;;;;-145.69;100.00;72325.81;5055434;28;20295;-76
2022/04/30 05:43:40;;;;;;;45.93;23.07;;;;;;;-145.69;100.00;72307.88;5055680;28;20236;-75
2022/04/30 05:46:07;;;;;;;45.60;23.13;;;;;;;-145.69;100.00;72313.84;5055399;28;20560;-75
2022/04/30 05:48:34;;;;;;;44.57;22.60;;;;;;;-145.69;100.00;72291.97;5055685;28;20311;-75
2022/04/30 05:51:02;;;;;;;50.10;24.27;;;;;;;-145.69;100.00;72284.00;5055458;28;20662;-75
2022/04/30 05:53:29;;;;;;;46.47;23.80;;;;;;;-145.69;100.00;72284.00;5055438;28;20207;-75
2022/04/30 05:55:55;;;;;;;42.63;23.00;;;;;;;-145.69;100.00;72274.06;5055474;28;20199;-75
2022/04/30 05:58:22;;;;;;;41.47;20.53;;;;;;;-145.69;100.00;72268.06;5055302;28;20558;-75
2022/04/30 06:00:48;;;;;;;44.57;22.77;;;;;;;-145.69;100.00;72258.13;5055108;28;20290;-74
2022/04/30 06:03:15;;;;;;;39.73;22.40;;;;;;;-145.69;100.00;72254.16;5070279;28;20731;-75
2022/04/30 06:05:42;;;;;;;44.30;21.87;;;;;;;-145.69;100.00;72256.13;5075373;28;20209;-75
2022/04/30 06:08:10;;;;;;;38.63;19.30;;;;;;;-145.69;100.00;72252.16;5067768;28;20207;-75
2022/04/30 06:10:36;;;;;;;36.10;19.57;;;;;;;-145.69;100.00;72256.13;5054738;28;20254;-75
2022/04/30 06:13:03;;;;;;;31.03;17.60;;;;;;;-145.69;100.00;72266.09;5055160;28;20589;-75
2022/04/30 06:15:29;;;;;;;34.63;18.73;;;;;;;-145.69;100.00;72258.13;5054977;28;20676;-75
2022/04/30 06:17:56;;;;;;;29.10;16.33;;;;;;;-145.69;100.00;72272.06;5055318;28;20207;-74
2022/04/30 06:20:23;;;;;;;27.90;15.57;;;;;;;-145.69;100.00;72278.03;5054908;28;20373;-75
2022/04/30 06:22:49;;;;;;;28.10;15.93;;;;;;;-145.69;100.00;72278.03;5054913;28;20265;-75
2022/04/30 06:25:17;;;;;;;31.63;16.97;;;;;;;-145.69;100.00;72270.06;5054819;28;20256;-75
2022/04/30 06:27:43;;;;;;;27.67;15.93;;;;;;;-145.69;100.00;72272.06;5054579;28;20203;-75
2022/04/30 06:30:11;;;;;;;29.03;16.17;;;;;;;-145.69;100.00;72264.09;5053910;28;20234;-75
2022/04/30 06:32:38;;;;;;;32.07;15.47;;;;;;;-145.69;100.00;72258.13;5066319;28;20195;-75
2022/04/30 06:35:05;;;;;;;26.70;15.40;;;;;;;-145.69;100.00;72250.16;5074378;28;20596;-74
2022/04/30 06:37:31;;;;;;;26.13;15.73;;;;;;;-145.69;100.00;72234.25;5074753;28;20207;-75
2022/04/30 06:39:58;;;;;;;29.52;16.70;;;;;;;-145.69;100.00;72232.25;5074007;28;20778;-76
2022/04/30 06:42:26;;;;;;;27.53;15.90;;;;;;;-145.69;100.00;72232.25;5074479;28;20199;-76
2022/04/30 06:44:52;;;;;;;23.93;14.20;;;;;;;-145.69;100.00;72200.41;5074724;28;20198;-75
2022/04/30 06:47:20;;;;;;;28.23;14.00;;;;;;;-145.69;100.00;72158.63;5074626;28;20195;-75
2022/04/30 06:49:46;;;;;;;25.50;14.00;;;;;;;-145.69;100.00;72128.75;5074313;28;20226;-75
2022/04/30 06:52:13;;;;;;;22.43;12.83;;;;;;;-145.69;100.00;72104.88;5074423;28;20202;-76
2022/04/30 06:57:23;;;;;;;20.93;12.60;;;;;;;-145.69;100.00;72142.69;5074297;28;20198;-76
2022/04/30 06:59:54;;;;;;;19.53;11.50;;;;;;;-145.69;100.00;72118.81;5074429;28;20210;-76
2022/04/30 07:02:22;;;;;;;17.53;10.47;;;;;;;-145.69;100.00;72098.91;5073877;28;20199;-75
2022/04/30 07:04:51;;;;;;;15.77;10.70;;;;;;;-145.69;100.00;72134.72;5074071;28;20535;-76
2022/04/30 07:07:18;;;;;;;17.07;10.60;;;;;;;-145.69;100.00;72106.88;5074078;28;20234;-76
2022/04/30 07:09:45;;;;;;;21.87;11.50;;;;;;;-145.69;100.00;72108.84;5074254;28;20237;-76
2022/04/30 07:12:13;;;;;;;19.00;13.30;;;;;;;-145.69;100.00;72086.97;5073246;28;20492;-75
2022/04/30 07:14:41;;;;;;;22.53;11.70;;;;;;;-145.69;100.00;72071.03;5073515;28;20298;-76
2022/04/30 07:17:09;;;;;;;17.97;10.70;;;;;;;-145.69;100.00;72037.22;5073235;28;20230;-76
2022/04/30 07:19:36;;;;;;;16.80;11.13;;;;;;;-145.69;100.00;72059.09;5074052;28;20701;-76
2022/04/30 07:22:04;;;;;;;19.33;12.65;;;;;;;-145.69;100.00;72071.03;5073027;28;20426;-78
2022/04/30 07:24:31;;;;;;;18.13;10.13;;;;;;;-145.69;100.00;72039.19;5073896;28;20658;-76
2022/04/30 07:26:58;;;;;;;18.90;10.40;;;;;;;-145.69;100.00;72043.19;5074122;28;20294;-76
2022/04/30 07:29:24;;;;;;;18.40;10.13;;;;;;;-145.69;100.00;72079.00;5073989;28;20279;-76
2022/04/30 07:31:51;;;;;;;20.30;10.60;;;;;;;-145.69;100.00;72086.97;5073597;28;20199;-76
2022/04/30 07:34:19;;;;;;;17.70;11.03;;;;;;;-145.69;100.00;72069.06;5073887;28;20604;-76
2022/04/30 07:36:45;;;;;;;17.00;10.67;;;;;;;-145.69;100.00;72041.19;5073549;28;20202;-76
2022/04/30 07:39:12;;;;;;;17.00;10.87;;;;;;;-145.69;100.00;72039.19;5073801;28;20256;-76
2022/04/30 07:41:38;;;;;;;16.93;10.27;;;;;;;-145.69;100.00;71997.41;5072936;28;20199;-76
2022/04/30 07:44:05;;;;;;;18.30;10.27;;;;;;;-145.69;100.00;72039.19;5073299;28;20320;-76
2022/04/30 07:46:32;;;;;;;17.27;11.30;;;;;;;-145.69;100.00;72084.97;5073780;28;20202;-76
2022/04/30 07:49:04;;;;;;;20.93;12.33;;;;;;;-145.69;100.00;72120.81;5073098;28;20554;-76
2022/04/30 07:51:41;;;;;;;19.10;12.10;;;;;;;-145.69;100.00;72114.81;5073360;28;20617;-75
2022/04/30 07:54:08;;;;;;;23.00;14.30;;;;;;;-145.69;100.00;72116.81;5060707;28;20544;-76
2022/04/30 07:56:37;;;;;;;22.50;12.40;;;;;;;-145.69;100.00;72090.94;5053388;28;20203;-76
2022/04/30 07:59:03;;;;;;;23.73;12.97;;;;;;;-145.69;100.00;72081.00;5052890;28;20566;-75
2022/04/30 08:01:30;;;;;;;21.03;12.07;;;;;;;-145.69;100.00;72061.09;5071584;28;20222;-76
2022/04/30 08:03:56;;;;;;;21.40;12.68;;;;;;;-145.69;100.00;72047.16;5072820;28;20912;-76
2022/04/30 08:06:23;;;;;;;19.87;10.67;;;;;;;-145.69;100.00;72055.13;5072814;28;20649;-77
2022/04/30 08:08:51;;;;;;;18.73;10.90;;;;;;;-145.69;100.00;72031.25;5073197;28;20222;-76
2022/04/30 08:11:17;;;;;;;16.57;10.40;;;;;;;-145.69;100.00;72025.28;5072995;28;20194;-75
2022/04/30 08:13:44;;;;;;;17.70;11.73;;;;;;;-145.69;100.00;72015.31;5072665;28;20286;-77
2022/04/30 08:16:11;;;;;;;20.03;10.20;;;;;;;-145.69;100.00;71937.69;5072714;28;20230;-76
2022/04/30 08:18:38;;;;;;;19.50;11.07;;;;;;;-145.69;100.00;71850.13;5072509;28;20321;-75
2022/04/30 08:21:05;;;;;;;17.33;10.27;;;;;;;-145.69;100.00;71806.34;5072903;28;20207;-75
2022/04/30 08:23:33;;;;;;;16.13;10.57;;;;;;;-145.69;100.00;71806.34;5072748;28;20207;-74
2022/04/30 08:26:01;;;;;;;16.90;9.07;;;;;;;-145.69;99.74;71750.63;5072712;28;20209;-75
2022/04/30 08:28:27;;;;;;;17.50;9.05;;;;;;;-145.69;94.12;71738.69;5072812;28;20199;-76
2022/04/30 08:30:54;;;;;;;13.55;8.63;;;;;;;-145.69;98.96;71832.22;5072240;28;20900;-75
2022/04/30 08:33:27;;;;;;;14.90;8.20;;;;;;;-145.69;100.00;71832.22;5072773;28;20608;-74
2022/04/30 08:35:53;;;;;;;17.25;9.02;;;;;;;-145.69;100.00;71935.72;5072335;28;20195;-74
2022/04/30 08:38:20;;;;;;;15.23;9.73;;;;;;;-145.69;100.00;72035.22;5072946;28;20195;-74
2022/04/30 08:40:53;;;;;;;20.30;10.27;;;;;;;-145.69;100.00;72019.31;5072609;28;20199;-73
2022/04/30 08:43:22;;;;;;;13.07;9.20;;;;;;;-145.69;100.00;71965.56;5072365;28;20194;-74
2022/04/30 08:45:49;;;;;;;12.80;8.80;;;;;;;-145.69;100.00;72001.38;5072751;28;20206;-73
2022/04/30 08:48:17;;;;;;;17.83;9.93;;;;;;;-145.69;100.00;71973.53;5072648;28;20201;-73
2022/04/30 08:50:45;;;;;;;18.70;9.87;;;;;;;-145.69;100.00;71933.72;5072488;28;20234;-74
2022/04/30 08:53:13;;;;;;;15.60;9.30;;;;;;;-145.69;100.00;71967.56;5073251;28;20203;-73
2022/04/30 08:55:40;;;;;;;12.53;7.77;;;;;;;-145.69;100.00;71955.63;5076584;28;20195;-75
2022/04/30 08:58:06;;;;;;;14.63;9.67;;;;;;;-145.69;100.00;71979.50;5076574;28;20203;-74
2022/04/30 09:00:42;;;;;;;16.93;10.27;;;;;;;-145.69;100.00;72011.34;5076608;28;20665;-73
2022/04/30 09:03:09;;;;;;;16.33;9.93;;;;;;;-145.69;100.00;72063.09;5076338;28;20194;-74
2022/04/30 09:05:36;;;;;;;18.13;10.27;;;;;;;-145.69;100.00;72079.00;5076477;28;20198;-73
2022/04/30 09:08:05;;;;;;;16.57;9.97;;;;;;;-145.69;100.00;72094.94;5076439;28;20206;-74
2022/04/30 09:10:33;;;;;;;20.33;10.47;;;;;;;-145.69;100.00;72110.84;5076102;28;20889;-74
2022/04/30 09:13:10;;;;;;;17.80;11.63;;;;;;;-145.69;100.00;72126.78;5076132;28;20195;-75
2022/04/30 09:15:39;;;;;;;19.17;11.57;;;;;;;-145.69;100.00;72104.88;5076270;28;20661;-75
2022/04/30 09:18:08;;;;;;;18.57;11.27;;;;;;;-145.69;100.00;72090.94;5075768;28;20565;-75
2022/04/30 09:20:45;;;;;;;19.40;12.13;;;;;;;-145.69;100.00;72094.94;5076045;28;20199;-75
2022/04/30 09:23:25;;;;;;;21.97;11.70;;;;;;;-145.69;100.00;72114.81;5076208;28;20214;-76
2022/04/30 09:25:53;;;;;;;16.20;10.27;;;;;;;-145.69;100.00;72094.94;5076007;28;20199;-75
2022/04/30 09:28:24;;;;;;;17.23;9.37;;;;;;;-145.69;100.00;72067.06;5075781;28;20739;-76
2022/04/30 09:30:51;;;;;;;17.67;11.65;;;;;;;-145.69;100.00;72043.19;5074441;28;20544;-75
2022/04/30 09:33:23;;;;;;;15.90;9.60;;;;;;;-145.69;100.00;71955.63;5075743;28;20210;-75
2022/04/30 09:38:51;;;;;;;16.30;10.43;;;;;;;-145.69;100.00;71838.19;5075234;28;20328;-76
2022/04/30 09:41:23;;;;;;;16.53;8.93;;;;;;;-145.69;100.00;71786.47;5075226;28;20294;-75
2022/04/30 09:44:04;;;;;;;13.40;8.87;;;;;;;-145.69;100.00;71806.34;5075588;28;20297;-76
2022/04/30 09:46:31;;;;;;;15.13;8.90;;;;;;;-145.69;100.00;71830.25;5075901;28;20206;-76
2022/04/30 09:54:28;;;;;;;48.55;28.75;;;;;;;-145.69;92.28;71645.16;5054452;28;20202;-76
2022/04/30 09:56:59;;;;;;;13.48;8.43;;;;;;;-145.69;92.74;71688.94;5075511;28;20674;-76
2022/04/30 10:02:04;;;;;;;13.15;8.60;;;;;;;-145.69;91.90;71680.97;4376266;22;20232;-76
2022/04/30 10:04:33;;;;;;;14.63;8.80;;;;;;;-145.69;93.99;71629.25;5041300;28;20200;-76
2022/04/30 10:07:02;;;;;;;14.00;8.13;;;;;;;-145.69;91.40;71625.25;5034976;28;20605;-76
2022/04/30 10:09:34;;;;;;;12.02;8.23;;;;;;;-145.69;93.31;71625.25;5033657;28;20469;-76
2022/04/30 10:12:06;;;;;;;13.00;8.02;;;;;;;-145.69;91.20;71651.13;5035150;28;20353;-77
2022/04/30 10:14:44;;;;;;;13.45;7.95;;;;;;;-145.69;85.88;71649.16;5035365;28;20211;-75
2022/04/30 10:17:16;;;;;;;12.13;7.95;;;;;;;-145.69;93.77;71720.78;5035012;28;20207;-76
2022/04/30 10:19:46;;;;;;;13.13;8.15;;;;;;;-145.69;95.10;71694.91;5035166;28;20200;-76
2022/04/30 10:22:14;;;;;;;10.65;7.25;;;;;;;-145.69;88.92;71613.31;5034990;28;20204;-75
2022/04/30 10:24:46;;;;;;;12.73;7.95;;;;;;;-145.69;90.60;71704.88;5035215;28;20250;-75
2022/04/30 10:27:13;;;;;;;12.38;8.07;;;;;;;-145.69;92.45;71712.81;5034994;28;20230;-76
2022/04/30 10:29:55;;;;;;;14.50;8.60;;;;;;;-145.69;89.69;71589.44;5034809;28;20204;-76
2022/04/30 10:32:26;;;;;;;12.35;7.45;;;;;;;-145.69;86.21;71563.56;5035235;28;20204;-76
2022/04/30 10:34:54;;;;;;;14.85;8.63;;;;;;;-145.69;87.68;71589.44;5035035;28;20258;-76
2022/04/30 10:37:27;;;;;;;14.60;8.23;;;;;;;-145.69;91.78;71667.06;5034728;28;20716;-76
2022/04/30 10:39:56;;;;;;;14.43;8.43;;;;;;;-145.69;89.35;71605.38;5034686;28;20658;-76
2022/04/30 10:42:29;;;;;;;12.95;8.18;;;;;;;-145.69;85.04;71503.88;5034713;28;20659;-76
2022/04/30 10:44:56;;;;;;;12.68;7.78;;;;;;;-145.69;80.43;71485.97;5034450;28;20196;-76
2022/04/30 10:47:22;;;;;;;15.40;8.55;;;;;;;-145.69;76.93;71547.66;5034742;28;20277;-76
2022/04/30 10:49:49;;;;;;;13.40;9.03;;;;;;;-145.69;80.59;71575.50;5034034;28;20441;-76
2022/04/30 10:52:21;;;;;;;13.15;8.57;;;;;;;-145.69;79.51;71519.81;5034284;28;20262;-76
2022/04/30 10:54:49;;;;;;;12.43;8.25;;;;;;;-145.69;86.68;71593.44;5034424;28;20617;-76
2022/04/30 10:57:16;;;;;;;10.32;7.28;;;;;;;-145.69;82.87;71505.88;5034351;28;20231;-76
2022/04/30 10:59:43;;;;;;;13.20;7.85;;;;;;;-145.69;83.43;71480.00;5045420;28;20207;-76
2022/04/30 11:02:12;;;;;;;14.45;8.02;;;;;;;-145.69;77.22;71474.03;5053900;28;20239;-76
2022/04/30 11:04:42;;;;;;;13.18;8.02;;;;;;;-145.69;84.51;71525.78;5054288;28;20226;-76
2022/04/30 11:07:09;;;;;;;15.10;8.50;;;;;;;-145.69;86.70;71585.47;5054365;28;20298;-76
2022/04/30 11:09:45;;;;;;;12.85;8.63;;;;;;;-145.69;85.41;71561.59;5054094;28;20195;-76
2022/04/30 11:12:14;;;;;;;14.88;9.10;;;;;;;-145.69;89.24;71569.53;5053774;28;20346;-76
2022/04/30 11:14:40;;;;;;;13.43;8.68;;;;;;;-145.69;94.08;71517.81;5053984;28;20733;-76
2022/04/30 11:17:07;;;;;;;15.38;9.50;;;;;;;-145.69;88.21;71458.09;5053926;28;20206;-76
2022/04/30 11:19:40;;;;;;;13.50;8.60;;;;;;;-145.69;80.79;71489.94;5053968;28;20295;-76
2022/04/30 11:22:11;;;;;;;10.60;6.70;;;;;;;-145.69;76.46;71462.09;5053866;28;20210;-76
2022/04/30 11:24:38;;;;;;;11.48;6.47;;;;;;;-145.69;75.28;71485.97;5053481;28;20296;-76
2022/04/30 11:27:08;;;;;;;10.07;6.63;;;;;;;-145.69;72.58;71505.88;5050951;28;21055;-76
2022/04/30 11:29:36;;;;;;;9.68;5.82;;;;;;;-145.69;74.29;71478.00;5042825;28;20291;-77
2022/04/30 11:32:04;;;;;;;10.57;6.25;;;;;;;-145.69;76.72;71487.97;5033570;28;20721;-76
2022/04/30 11:34:31;;;;;;;8.85;5.55;;;;;;;-145.69;76.56;71545.66;5049299;28;20200;-77
2022/04/30 11:36:59;;;;;;;11.45;6.93;;;;;;;-145.69;84.93;71714.81;5053439;28;20593;-76